Latest Weather Observations for Jervois

IDD60801

Issued at 1:35 pm CST Tuesday 23 September 2014 (issued every 30 minutes, with the page automatically refreshed every 10 minutes)

About weather observations | Map of weather stations | Latest weather observations for NT | Other Formats
Station Details ID: 015602 Name: JERVOIS Lat: -22.95 Lon: 136.14 Height: 328.0 m
Data from the previous 72 hours. | See also: Recent months at Jervois
Date/Time
CST
Temp
°C
App
Temp
°C
Dew
Point
Rel
Hum
%
Delta-T
°C
Wind Press
QNH
hPa
Press
MSL
hPa
Rain
since 9 am
mm
Dir
 
Spd
km/h
Gust
km/h
Spd
kts
Gust
kts
23/01:30pm 30.3 23.0 -5.9 9 15.9 N 24 37 13 20 1012.7 - 0.0
23/01:00pm 29.7 23.3 -5.0 10 15.4 N 20 35 11 19 1012.7 - 0.0
23/12:30pm 29.1 22.7 -4.7 11 15.0 NE 20 26 11 14 1013.6 - 0.0
23/12:00pm 28.0 22.4 -3.2 13 14.1 N 17 32 9 17 1014.4 1013.6 0.0
23/11:30am 27.6 21.6 -2.9 13 13.8 NE 19 26 10 14 1015.1 - 0.0
23/11:00am 27.7 22.1 -3.1 13 13.9 N 17 26 9 14 1015.7 - 0.0
23/10:30am 26.4 21.3 -1.8 15 12.9 NNE 15 26 8 14 1016.1 - 0.0
23/10:00am 26.3 19.9 -1.6 16 12.8 NNE 22 30 12 16 1016.2 - 0.0
23/09:30am 25.7 19.2 -2.2 16 12.6 NE 22 32 12 17 1016.4 - 0.0
23/09:00am 24.3 18.6 0.4 20 11.2 NE 20 28 11 15 1016.6 1015.5 0.0
23/08:30am 23.2 17.6 1.5 24 10.3 NE 20 28 11 15 1016.6 - 0.0
23/08:00am 20.9 15.7 -0.2 24 9.5 ENE 17 22 9 12 1016.5 - 0.0
23/07:30am 17.5 13.3 -4.0 23 8.7 NNE 9 13 5 7 1016.5 - 0.0
23/07:27am 17.4 13.2 -4.2 22 8.7 NNE 9 13 5 7 1016.5 - 0.0
23/07:00am 12.4 8.0 -5.8 27 6.7 N 9 9 5 5 1016.5 - 0.0
23/06:30am 8.3 5.4 -8.5 29 5.5 CALM 0 9 0 5 1016.5 - 0.0
23/06:00am 7.9 4.8 -10.4 26 5.7 NNW 0 0 0 0 1016.5 1015.3 0.0
23/05:30am 8.0 5.1 -8.6 30 5.4 CALM 0 0 0 0 1016.3 - 0.0
23/05:00am 8.4 5.1 -8.8 28 5.6 NE 2 6 1 3 1016.2 - 0.0
23/04:30am 8.6 5.5 -10.5 24 6.0 CALM 0 0 0 0 1015.9 - 0.0
23/04:00am 8.7 5.6 -10.9 24 6.1 CALM 0 0 0 0 1016.0 - 0.0
23/03:30am 9.4 6.2 -11.6 21 6.5 CALM 0 0 0 0 1016.0 - 0.0
23/03:00am 9.8 6.8 -8.9 26 6.2 CALM 0 0 0 0 1016.0 1014.9 0.0
23/02:30am 10.1 7.2 -7.7 28 6.1 CALM 0 0 0 0 1016.2 - 0.0
23/02:00am 10.9 7.9 -9.1 23 6.7 CALM 0 0 0 0 1016.3 - 0.0
23/01:30am 12.5 9.5 -9.2 21 7.4 CALM 0 0 0 0 1016.6 - 0.0
23/01:00am 12.6 9.6 -9.5 20 7.5 CALM 0 0 0 0 1016.6 - 0.0
23/12:30am 11.7 7.3 -10.7 20 7.3 ESE 7 9 4 5 1016.9 - 0.0
23/12:00am 11.8 7.5 -8.7 23 7.0 ESE 7 9 4 5 1017.1 1016.1 0.0
 
Date/Time
CST
Temp
°C
App
Temp
°C
Dew
Point
Rel
Hum
%
Delta-T
°C
Wind Press
QNH
hPa
Press
MSL
hPa
Rain
since 9 am
mm
Dir
 
Spd
km/h
Gust
km/h
Spd
kts
Gust
kts
22/11:30pm 13.1 10.0 -10.7 18 7.9 CALM 0 0 0 0 1017.6 - 0.0
22/11:00pm 14.0 10.1 -11.3 16 8.4 SE 4 6 2 3 1017.6 - 0.0
22/10:30pm 14.9 10.5 -10.0 17 8.6 SSE 7 9 4 5 1017.7 - 0.0
22/10:00pm 15.1 10.3 -10.7 16 8.8 S 9 9 5 5 1017.8 - 0.0
22/09:30pm 18.0 13.7 -8.4 16 9.8 SSE 7 9 4 5 1017.7 - 0.0
22/09:00pm 18.7 13.9 -10.8 12 10.5 SSE 9 13 5 7 1017.6 1016.6 0.0
22/08:30pm 19.8 15.1 -9.8 12 10.9 SSE 9 13 5 7 1017.4 - 0.0
22/08:00pm 19.0 14.7 -9.1 14 10.4 SE 7 11 4 6 1017.1 - 0.0
22/07:30pm 20.2 16.2 -7.9 14 10.8 ESE 6 7 3 4 1016.9 - 0.0
22/07:00pm 22.4 17.6 -10.5 10 12.3 SE 9 11 5 6 1016.7 - 0.0
22/06:30pm 23.9 19.0 -12.3 8 13.3 ESE 9 15 5 8 1016.4 - 0.0
22/06:00pm 25.7 19.9 -14.7 6 14.5 ESE 13 17 7 9 1016.2 1015.1 0.0
22/05:30pm 26.5 21.2 -12.6 7 14.7 SE 11 17 6 9 1016.0 - 0.0
22/05:00pm 26.7 21.0 -12.5 7 14.8 SE 13 20 7 11 1015.9 - 0.0
22/04:30pm 27.3 23.8 -10.6 7 14.9 SSE 2 20 1 11 1015.9 - 0.0
22/04:00pm 27.0 22.1 -12.0 7 14.9 S 9 20 5 11 1015.9 - 0.0
22/03:30pm 26.8 22.2 -12.9 6 14.9 E 7 15 4 8 1016.1 - 0.0
22/03:00pm 27.3 21.7 -17.6 4 15.6 SSE 11 22 6 12 1016.2 1015.1 0.0
22/02:30pm 26.8 19.6 -16.0 5 15.2 SE 20 33 11 18 1016.5 - 0.0
22/02:00pm 26.8 20.2 -16.0 5 15.2 ESE 17 28 9 15 1016.8 - 0.0
22/01:30pm 26.5 21.1 -13.6 6 14.8 ESE 11 20 6 11 1017.4 - 0.0
22/01:00pm 26.3 19.1 -14.7 6 14.8 SE 20 28 11 15 1018.2 - 0.0
22/12:30pm 25.4 19.6 -13.5 7 14.2 SE 13 22 7 12 1018.8 - 0.0
22/12:00pm 25.2 18.7 -13.6 7 14.1 E 17 30 9 16 1019.5 1018.4 0.0
22/11:30am 24.7 18.7 -11.5 8 13.6 SE 15 30 8 16 1020.1 - 0.0
22/11:00am 24.2 16.9 -11.2 8 13.3 SSE 22 30 12 16 1020.6 - 0.0
22/10:30am 23.9 16.5 -11.7 8 13.2 ESE 22 30 12 16 1021.2 - 0.0
22/10:00am 23.2 16.5 -10.7 9 12.7 ESE 19 28 10 15 1021.7 - 0.0
22/09:30am 21.9 15.5 -6.6 14 11.4 ESE 19 24 10 13 1022.1 - 0.0
22/09:00am 20.9 15.0 -9.7 12 11.4 ESE 15 22 8 12 1022.1 1021.0 0.0
22/08:30am 19.1 12.8 -9.6 13 10.5 SE 17 24 9 13 1022.0 - 0.0
22/08:00am 17.2 11.7 -9.7 15 9.6 SE 13 20 7 11 1021.8 - 0.0
22/07:30am 14.7 10.4 -9.4 18 8.4 S 7 15 4 8 1021.5 - 0.0
22/07:00am 11.8 7.5 -8.7 23 7.0 S 7 9 4 5 1020.9 - 0.0
22/06:30am 10.2 5.9 -9.2 24 6.4 SSW 7 11 4 6 1020.8 - 0.0
22/06:00am 10.6 6.3 -8.8 24 6.5 S 7 9 4 5 1020.5 1019.5 0.0
22/05:30am 10.6 5.9 -8.8 24 6.5 S 9 11 5 6 1020.5 - 0.0
22/05:00am 10.8 6.2 -8.4 25 6.5 S 9 11 5 6 1020.4 - 0.0
22/04:30am 11.2 6.6 -8.5 24 6.7 S 9 11 5 6 1020.5 - 0.0
22/04:00am 11.3 7.1 -8.3 24 6.7 S 7 11 4 6 1020.5 - 0.0
22/03:30am 11.7 7.4 -8.4 23 6.9 S 7 11 4 6 1020.5 - 0.0
22/03:00am 12.0 7.4 -8.3 23 7.0 S 9 13 5 7 1020.6 1019.6 0.0
22/02:30am 12.4 7.7 -9.0 21 7.3 S 9 11 5 6 1020.8 - 0.0
22/02:00am 12.8 8.5 -8.5 22 7.4 S 7 11 4 6 1021.0 - 0.0
22/01:30am 13.1 8.9 -7.8 22 7.4 S 7 11 4 6 1021.5 - 0.0
22/01:00am 13.6 8.9 -8.8 20 7.8 S 9 13 5 7 1021.8 - 0.0
22/12:30am 13.9 9.2 -8.6 20 7.9 S 9 11 5 6 1022.2 - 0.0
22/12:00am 14.2 9.9 -8.4 20 8.0 S 7 11 4 6 1022.5 1021.5 0.0
 
Date/Time
CST
Temp
°C
App
Temp
°C
Dew
Point
Rel
Hum
%
Delta-T
°C
Wind Press
QNH
hPa
Press
MSL
hPa
Rain
since 9 am
mm
Dir
 
Spd
km/h
Gust
km/h
Spd
kts
Gust
kts
21/11:30pm 15.0 10.8 -8.1 19 8.3 S 7 9 4 5 1022.5 - 0.0
21/11:00pm 16.0 11.4 -8.3 18 8.8 SSE 9 13 5 7 1022.5 - 0.0
21/10:30pm 16.5 11.4 -9.3 16 9.2 SSE 11 15 6 8 1022.7 - 0.0
21/10:00pm 16.5 11.9 -8.1 18 9.0 SSE 9 13 5 7 1022.8 - 0.0
21/09:30pm 17.9 13.3 -8.3 16 9.7 SSE 9 13 5 7 1022.8 - 0.0
21/09:00pm 19.0 13.9 -9.3 14 10.4 SSE 11 15 6 8 1022.4 1021.2 0.0
21/08:30pm 19.5 14.4 -9.0 14 10.6 SSE 11 15 6 8 1022.2 - 0.0
21/08:00pm 20.3 14.8 -9.7 12 11.1 SSE 13 15 7 8 1021.8 - 0.0
21/07:30pm 21.2 15.6 -10.7 11 11.7 SSE 13 19 7 10 1021.4 - 0.0
21/07:00pm 21.9 16.3 -10.4 10 12.0 SSE 13 19 7 10 1021.0 - 0.0
21/06:30pm 22.9 15.9 -12.6 8 12.8 SE 20 32 11 17 1020.6 - 0.0
21/06:00pm 23.7 16.9 -12.5 8 13.2 SE 19 26 10 14 1020.2 1019.2 0.0
21/05:30pm 24.4 17.3 -13.7 7 13.7 SE 20 30 11 16 1019.9 - 0.0
21/05:00pm 24.7 17.2 -14.2 6 13.9 SSE 22 32 12 17 1019.9 - 0.0
21/04:30pm 25.3 18.1 -15.0 6 14.3 SE 20 32 11 17 1019.7 - 0.0
21/04:00pm 25.0 17.5 -13.6 7 14.0 SE 22 35 12 19 1020.0 - 0.0
21/03:30pm 25.3 18.3 -12.2 7 14.0 SSE 20 35 11 19 1020.0 - 0.0
21/03:00pm 25.2 17.4 -12.7 7 14.0 SE 24 39 13 21 1020.1 1019.1 0.0
21/02:30pm 24.7 17.4 -11.6 8 13.6 SE 22 35 12 19 1020.5 - 0.0
21/02:00pm 24.8 17.2 -10.4 9 13.5 SE 24 37 13 20 1020.9 - 0.0
21/01:30pm 24.7 17.5 -9.3 10 13.3 SE 22 35 12 19 1021.6 - 0.0
21/01:00pm 23.5 16.3 -9.5 10 12.7 SSE 22 32 12 17 1022.0 - 0.0
21/12:30pm 22.8 15.2 -10.0 10 12.4 SE 24 41 13 22 1022.5 - 0.0
21/12:00pm 22.6 14.7 -9.3 11 12.2 SE 26 37 14 20 1023.0 1022.1 0.0
21/11:30am 22.2 15.1 -8.7 12 11.9 SE 22 39 12 21 1023.5 - 0.0
21/11:00am 21.9 15.5 -7.2 13 11.5 S 19 32 10 17 1024.0 - 0.0
21/10:30am 20.6 13.3 -5.9 16 10.6 SE 24 37 13 20 1024.6 - 0.0
21/10:00am 19.7 12.6 -4.2 19 9.8 SE 24 37 13 20 1025.0 - 0.0
21/09:30am 18.8 12.2 -3.1 22 9.1 SE 22 33 12 18 1025.2 - 0.0
21/09:00am 17.8 11.8 -1.4 27 8.2 SE 20 28 11 15 1025.3 1024.4 0.0
21/08:30am 16.8 10.7 0.4 33 7.2 SE 22 32 12 17 1025.3 - 0.0
21/08:00am 15.5 10.2 1.9 40 6.1 SE 19 28 10 15 1025.1 - 0.0
21/07:30am 13.7 10.0 4.2 52 4.4 SSE 13 20 7 11 1024.8 - 0.0
21/07:00am 12.2 8.9 4.6 59 3.5 S 11 19 6 10 1024.2 - 0.0
21/06:30am 10.8 8.2 4.2 64 3.0 S 7 11 4 6 1023.6 - 0.0
21/06:00am 12.1 8.3 4.0 57 3.7 SE 13 24 7 13 1023.5 1022.5 0.0
21/05:30am 10.5 7.4 3.8 63 3.0 S 9 13 5 7 1023.3 - 0.0
21/05:00am 11.4 8.4 3.9 60 3.4 SSE 9 13 5 7 1023.1 - 0.0
21/04:30am 11.6 8.0 2.8 54 3.9 SSE 11 15 6 8 1022.7 - 0.0
21/04:00am 11.7 8.5 2.9 55 3.9 SSE 9 11 5 6 1022.3 - 0.0
21/03:30am 12.2 9.4 3.0 53 4.1 SSE 7 11 4 6 1022.1 - 0.0
21/03:00am 12.7 9.6 3.4 53 4.2 SSE 9 15 5 8 1022.2 1021.1 0.0
21/02:30am 13.1 10.6 5.0 58 3.8 SE 7 9 4 5 1022.3 - 0.0
21/02:00am 13.8 10.7 5.4 57 4.0 SE 11 15 6 8 1022.3 - 0.0
21/01:30am 14.3 11.7 6.0 57 4.0 SE 9 13 5 7 1022.6 - 0.0
21/01:00am 15.0 12.0 6.0 55 4.4 SSE 11 17 6 9 1022.6 - 0.0
21/12:30am 16.1 11.3 5.6 49 5.1 SSE 20 30 11 16 1022.7 - 0.0
21/12:00am 17.0 12.4 5.8 47 5.5 SSE 19 33 10 18 1022.6 1021.6 0.0
 
Date/Time
CST
Temp
°C
App
Temp
°C
Dew
Point
Rel
Hum
%
Delta-T
°C
Wind Press
QNH
hPa
Press
MSL
hPa
Rain
since 9 am
mm
Dir
 
Spd
km/h
Gust
km/h
Spd
kts
Gust
kts
20/11:30pm 17.7 12.6 6.0 46 5.8 SSE 22 35 12 19 1022.5 - 0.0
20/11:00pm 18.4 14.1 5.1 41 6.5 SSE 17 26 9 14 1022.4 - 0.0
20/10:30pm 19.1 14.7 4.5 38 7.1 SSE 17 26 9 14 1022.2 - 0.0
20/10:00pm 19.4 15.3 4.4 37 7.3 SE 15 20 8 11 1022.0 - 0.0
20/09:30pm 19.9 15.4 4.3 35 7.6 SE 17 24 9 13 1021.8 - 0.0
20/09:00pm 20.4 15.3 3.9 33 8.0 SE 20 30 11 16 1021.6 1020.4 0.0
20/08:30pm 20.7 15.4 3.2 31 8.4 SE 20 35 11 19 1021.2 - 0.0
20/08:00pm 21.0 14.9 2.8 30 8.7 SE 24 39 13 21 1020.9 - 0.0
20/07:33pm 21.4 14.4 2.2 28 9.1 ESE 28 46 15 25 1020.3 - 0.0
20/07:30pm 21.4 13.7 2.2 28 9.1 ESE 32 46 17 25 1020.2 - 0.0
20/07:22pm 21.6 14.6 1.9 27 9.3 ESE 28 46 15 25 1020.0 - 0.0
20/07:00pm 21.8 13.9 0.8 25 9.7 ESE 32 46 17 25 1019.5 - 0.0
20/06:31pm 22.2 14.2 0.5 23 10.0 SE 32 50 17 27 1018.9 - 0.0
20/06:30pm 22.2 14.2 0.5 23 10.0 ESE 32 46 17 25 1018.9 - 0.0
20/06:15pm 22.7 14.9 -0.7 21 10.6 ESE 30 48 16 26 1018.4 - 0.0
20/06:00pm 23.3 14.9 -1.0 20 11.0 SE 33 50 18 27 1018.1 1017.0 0.0
20/05:35pm 25.0 17.0 -2.2 16 12.2 ESE 30 50 16 27 1017.5 - 0.0
20/05:30pm 25.6 17.7 -4.5 13 13.0 ESE 28 44 15 24 1017.4 - 0.0
20/05:00pm 26.6 18.6 -5.3 12 13.7 ESE 28 35 15 19 1017.1 - 0.0
20/04:30pm 27.3 19.3 -5.9 11 14.2 ESE 28 39 15 21 1016.9 - 0.0
20/04:00pm 28.4 21.2 -5.3 10 14.7 ESE 24 37 13 20 1016.8 - 0.0
20/03:30pm 28.2 21.8 -5.4 11 14.6 SE 20 35 11 19 1017.0 - 0.0
20/03:00pm 28.2 22.4 -4.8 11 14.5 E 17 17 9 9 1017.2 1016.3 0.0
20/02:30pm 27.4 20.9 -5.7 11 14.2 ESE 20 30 11 16 1017.6 - 0.0
20/02:00pm 27.5 21.0 -5.9 11 14.3 ESE 20 33 11 18 1018.0 - 0.0

Other Formats:

Comma delimited format used in spreadsheet applications
http://www.bom.gov.au/fwo/IDD60801/IDD60801.94327.axf

JavaScript Object Notation format (JSON) in row-major order
http://www.bom.gov.au/fwo/IDD60801/IDD60801.94327.json